createdAt,value
2023-05-01T00:00:24.579Z,105.4615
2023-05-01T00:01:25.678Z,106.8462
2023-05-01T00:02:26.797Z,105.8462
2023-05-01T00:03:27.878Z,97.6154
2023-05-01T00:04:28.763Z,88.3077
2023-05-01T00:05:29.785Z,89.6154
2023-05-01T00:06:30.926Z,86.9231
2023-05-01T00:07:31.929Z,85.6154
2023-05-01T00:08:32.909Z,84.7692
2023-05-01T00:09:33.945Z,82.4615
2023-05-01T00:10:34.957Z,77.4615
2023-05-01T00:11:36.063Z,77.7692
2023-05-01T00:12:37.155Z,80.6923
2023-05-01T00:13:38.081Z,81.3077
2023-05-01T00:14:39.108Z,74.6154
2023-05-01T00:15:40.159Z,72.9231
2023-05-01T00:16:41.258Z,71.1538
2023-05-01T00:17:42.320Z,75.3846
2023-05-01T00:18:43.259Z,79.3077
2023-05-01T00:19:44.310Z,74.3077
2023-05-01T00:20:45.322Z,73.7692
2023-05-01T00:21:46.459Z,79.6923
2023-05-01T00:22:47.423Z,79.6923
2023-05-01T00:23:48.471Z,85.4615
2023-05-01T00:24:49.482Z,83.6923
2023-05-01T00:25:50.558Z,90.0000
2023-05-01T00:26:51.597Z,85.6154
2023-05-01T00:27:52.651Z,82.0000
2023-05-01T00:28:53.936Z,84.0000
2023-05-01T00:29:54.943Z,84.1538
2023-05-01T00:30:55.732Z,86.3846
2023-05-01T00:31:56.838Z,92.5385
2023-05-01T00:32:57.860Z,97.6154
2023-05-01T00:33:58.913Z,104.7692
2023-05-01T00:34:59.880Z,112.3077
2023-05-01T00:36:00.961Z,121.8462
2023-05-01T00:37:01.957Z,126.8462
2023-05-01T00:38:03.088Z,126.5385
2023-05-01T00:39:04.061Z,125.3846
2023-05-01T00:40:05.100Z,127.7692
2023-05-01T00:41:06.138Z,135.7692
2023-05-01T00:42:07.207Z,132.4615
2023-05-01T00:43:08.237Z,132.5385
2023-05-01T00:44:09.287Z,136.0769
2023-05-01T00:45:10.260Z,138.8462
2023-05-01T00:46:11.376Z,139.2308
2023-05-01T00:47:12.339Z,148.3846
2023-05-01T00:48:13.435Z,151.6154
2023-05-01T00:49:14.437Z,158.7692
2023-05-01T00:50:15.489Z,166.9231
2023-05-01T00:51:16.506Z,170.8462
2023-05-01T00:52:17.565Z,175.0769
2023-05-01T00:53:18.577Z,176.3077
2023-05-01T00:54:19.656Z,171.3077
2023-05-01T00:55:20.645Z,165.9231
2023-05-01T00:56:21.656Z,169.7692
2023-05-01T00:57:22.672Z,176.5385
2023-05-01T00:58:23.750Z,183.0769
2023-05-01T00:59:24.793Z,184.3846
2023-05-01T01:00:25.849Z,184.9231
2023-05-01T01:01:26.973Z,177.8462
2023-05-01T01:02:27.922Z,179.0769
2023-05-01T01:03:29.006Z,179.8462
2023-05-01T01:04:30.074Z,178.0000
2023-05-01T01:05:31.022Z,185.0000
2023-05-01T01:06:32.058Z,187.3846
2023-05-01T01:07:33.094Z,191.3077
2023-05-01T01:08:34.161Z,189.4615
2023-05-01T01:09:35.334Z,187.9231
2023-05-01T01:10:36.161Z,187.0000
2023-05-01T01:11:37.221Z,194.6923
2023-05-01T01:12:38.252Z,190.8462
2023-05-01T01:13:39.301Z,188.2308
2023-05-01T01:14:40.301Z,191.7692
2023-05-01T01:15:41.320Z,195.2308
2023-05-01T01:16:42.354Z,194.0769
2023-05-01T01:17:43.417Z,193.0769
2023-05-01T01:18:44.438Z,194.0000
2023-05-01T01:19:45.490Z,193.4615
2023-05-01T01:20:46.507Z,195.0000
2023-05-01T01:21:47.586Z,197.7692
2023-05-01T01:22:48.514Z,198.7692
2023-05-01T01:23:49.584Z,197.6154
2023-05-01T01:24:50.593Z,193.2308
2023-05-01T01:25:51.652Z,191.0000
2023-05-01T01:26:52.645Z,195.1538
2023-05-01T01:27:53.692Z,198.1538
2023-05-01T01:28:54.765Z,195.7692
2023-05-01T01:29:56.200Z,194.1538
2023-05-01T01:30:56.908Z,194.2308
2023-05-01T01:31:57.825Z,194.3077
2023-05-01T01:32:58.885Z,197.6154
2023-05-01T01:33:59.945Z,191.5385
2023-05-01T01:35:00.934Z,189.7692
2023-05-01T01:36:01.970Z,193.3846
2023-05-01T01:37:02.999Z,187.6923
2023-05-01T01:38:04.016Z,189.3846
2023-05-01T01:39:05.091Z,189.6154
2023-05-01T01:40:06.171Z,189.5385
2023-05-01T01:41:07.174Z,188.8462
2023-05-01T01:42:08.210Z,185.4615
2023-05-01T01:43:09.183Z,185.0769
2023-05-01T01:44:10.274Z,188.8462
2023-05-01T01:45:11.273Z,191.6154
2023-05-01T01:46:12.382Z,190.2308
2023-05-01T01:47:13.356Z,187.6923
2023-05-01T01:48:14.378Z,186.0769
2023-05-01T01:49:15.382Z,187.6154
2023-05-01T01:50:16.537Z,186.1538
2023-05-01T01:51:17.496Z,184.6923
2023-05-01T01:52:18.551Z,179.3846
2023-05-01T01:53:19.590Z,174.6923
2023-05-01T01:54:20.591Z,170.0769
2023-05-01T01:55:21.611Z,167.3077
2023-05-01T01:56:22.658Z,168.9231
2023-05-01T01:57:23.704Z,167.7692
2023-05-01T01:58:24.747Z,173.3077
2023-05-01T01:59:25.742Z,175.0769
2023-05-01T02:00:26.801Z,172.0769
2023-05-01T02:01:27.824Z,171.6154
2023-05-01T02:02:28.980Z,168.5385
2023-05-01T02:03:29.971Z,161.2308
2023-05-01T02:04:30.949Z,154.2308
2023-05-01T02:05:31.939Z,156.1538
2023-05-01T02:06:33.040Z,151.5385
2023-05-01T02:07:34.021Z,148.4615
2023-05-01T02:08:35.120Z,151.3846
2023-05-01T02:09:36.136Z,151.2308
2023-05-01T02:10:37.155Z,145.9231
2023-05-01T02:11:38.194Z,147.6154
2023-05-01T02:12:39.212Z,152.8462
2023-05-01T02:13:40.297Z,151.6154
2023-05-01T02:14:41.345Z,149.0000
2023-05-01T02:15:42.347Z,151.3846
2023-05-01T02:16:43.393Z,153.6154
2023-05-01T02:17:44.407Z,151.0000
2023-05-01T02:18:45.473Z,157.2308
2023-05-01T02:19:46.517Z,158.2308
2023-05-01T02:20:47.542Z,155.7692
2023-05-01T02:21:48.533Z,152.9231
2023-05-01T02:22:49.573Z,154.0769
2023-05-01T02:23:50.623Z,151.0000
2023-05-01T02:24:51.673Z,152.5385
2023-05-01T02:25:52.655Z,154.9231
2023-05-01T02:26:53.693Z,166.7692
2023-05-01T02:27:54.723Z,170.3846
2023-05-01T02:28:55.791Z,165.0769
2023-05-01T02:29:57.150Z,169.0000
2023-05-01T02:30:57.853Z,165.0769
2023-05-01T02:31:59.056Z,163.7692
2023-05-01T02:32:59.958Z,167.2308
2023-05-01T02:34:00.955Z,167.6154
2023-05-01T02:35:02.001Z,157.2308
2023-05-01T02:36:02.977Z,152.4615
2023-05-01T02:37:04.010Z,160.0769
2023-05-01T02:38:05.036Z,160.2308
2023-05-01T02:39:06.136Z,156.5385
2023-05-01T02:40:07.165Z,154.2308
2023-05-01T02:41:08.175Z,148.0769
2023-05-01T02:42:09.233Z,154.3077
2023-05-01T02:43:10.255Z,162.2308
2023-05-01T02:44:11.281Z,163.2308
2023-05-01T02:45:12.314Z,167.0769
2023-05-01T02:46:13.341Z,170.9231
2023-05-01T02:47:14.407Z,164.3846
2023-05-01T02:48:15.381Z,166.0000
2023-05-01T02:49:16.479Z,169.5385
2023-05-01T02:50:17.516Z,165.3077
2023-05-01T02:51:18.504Z,164.4615
2023-05-01T02:52:19.543Z,156.3077
2023-05-01T02:53:20.598Z,154.8462
2023-05-01T02:54:21.633Z,150.4615
2023-05-01T02:55:22.679Z,146.1538
2023-05-01T02:56:23.679Z,151.7692
2023-05-01T02:57:24.743Z,157.8462
2023-05-01T02:58:25.776Z,161.7692
2023-05-01T02:59:26.826Z,166.6154
2023-05-01T03:00:27.869Z,164.4615
2023-05-01T03:01:28.905Z,165.5385
2023-05-01T03:02:29.878Z,164.6923
2023-05-01T03:03:30.942Z,167.9231
2023-05-01T03:04:32.038Z,170.9231
2023-05-01T03:05:33.024Z,164.0769
2023-05-01T03:06:34.073Z,162.1538
2023-05-01T03:07:35.102Z,160.4615
2023-05-01T03:08:36.103Z,158.4615
2023-05-01T03:09:37.158Z,158.0000
2023-05-01T03:10:38.217Z,160.3077
2023-05-01T03:11:39.203Z,161.3077
2023-05-01T03:12:40.257Z,158.1538
2023-05-01T03:13:41.256Z,156.9231
2023-05-01T03:14:42.333Z,163.1538
2023-05-01T03:15:43.338Z,162.0000
2023-05-01T03:16:44.433Z,159.2308
2023-05-01T03:17:45.408Z,164.7692
2023-05-01T03:18:46.441Z,160.0000
2023-05-01T03:19:47.457Z,157.3077
2023-05-01T03:20:48.529Z,157.0769
2023-05-01T03:21:49.519Z,155.9231
2023-05-01T03:22:50.568Z,157.3077
2023-05-01T03:23:51.593Z,162.5385
2023-05-01T03:24:52.668Z,160.6154
2023-05-01T03:25:53.698Z,165.2308
2023-05-01T03:26:54.737Z,164.1538
2023-05-01T03:27:55.713Z,161.0000
2023-05-01T03:28:56.762Z,156.9231
2023-05-01T03:29:58.060Z,153.5385
2023-05-01T03:30:58.876Z,150.6923
2023-05-01T03:31:59.940Z,152.4615
2023-05-01T03:33:00.975Z,158.0769
2023-05-01T03:34:01.918Z,157.0769
2023-05-01T03:35:03.113Z,155.2308
2023-05-01T03:36:04.044Z,157.8462
2023-05-01T03:37:05.061Z,155.5385
2023-05-01T03:38:06.110Z,152.6154
2023-05-01T03:39:07.136Z,152.4615
2023-05-01T03:40:08.184Z,152.0769
2023-05-01T03:41:09.211Z,154.6154
2023-05-01T03:42:10.210Z,155.3077
2023-05-01T03:43:11.273Z,159.1538
2023-05-01T03:44:12.251Z,157.3077
2023-05-01T03:45:13.339Z,156.3846
2023-05-01T03:46:14.421Z,154.2308
2023-05-01T03:47:15.388Z,154.3846
2023-05-01T03:48:16.397Z,151.0000
2023-05-01T03:49:17.469Z,146.8462
2023-05-01T03:50:18.508Z,149.3077
2023-05-01T03:51:19.533Z,156.2308
2023-05-01T03:52:20.508Z,158.4615
2023-05-01T03:53:21.570Z,150.6923
2023-05-01T03:54:22.613Z,152.5385
2023-05-01T03:55:23.675Z,149.0000
2023-05-01T03:56:24.653Z,145.6154
2023-05-01T03:57:25.753Z,145.6923
2023-05-01T03:58:26.721Z,146.6923
2023-05-01T03:59:27.827Z,150.5385
2023-05-01T04:00:28.812Z,158.5385
2023-05-01T04:01:29.873Z,160.4615
2023-05-01T04:02:30.973Z,160.8462
2023-05-01T04:03:31.974Z,164.7692
2023-05-01T04:04:33.049Z,158.5385
2023-05-01T04:05:33.992Z,158.7692
2023-05-01T04:06:35.081Z,159.1538
2023-05-01T04:07:36.056Z,160.4615
2023-05-01T04:08:37.054Z,161.6923
2023-05-01T04:09:38.123Z,161.9231
2023-05-01T04:10:39.163Z,157.4615
2023-05-01T04:11:40.215Z,156.5385
2023-05-01T04:12:41.194Z,151.9231
2023-05-01T04:13:42.322Z,154.2308
2023-05-01T04:14:43.280Z,150.8462
2023-05-01T04:15:44.393Z,151.3846
2023-05-01T04:16:45.359Z,151.3077
2023-05-01T04:17:46.402Z,150.6154
2023-05-01T04:18:47.412Z,147.1538
2023-05-01T04:19:48.464Z,141.2308
2023-05-01T04:20:49.510Z,141.5385
2023-05-01T04:21:50.553Z,141.3077
2023-05-01T04:22:51.518Z,145.9231
2023-05-01T04:23:52.570Z,145.3077
2023-05-01T04:24:53.604Z,144.8462
2023-05-01T04:25:54.729Z,146.4615
2023-05-01T04:26:55.710Z,151.2308
2023-05-01T04:27:56.752Z,152.6923
2023-05-01T04:28:57.757Z,146.3077
2023-05-01T04:29:59.040Z,148.7692
2023-05-01T04:30:59.840Z,150.6154
2023-05-01T04:32:00.984Z,145.7692
2023-05-01T04:33:02.008Z,146.0769
2023-05-01T04:34:02.944Z,145.5385
2023-05-01T04:35:04.319Z,148.6154
2023-05-01T04:36:05.003Z,150.7692
2023-05-01T04:37:06.032Z,146.9231
2023-05-01T04:38:07.089Z,145.7692
2023-05-01T04:39:08.070Z,148.0769
2023-05-01T04:40:11.262Z,148.5385
2023-05-01T04:41:10.148Z,145.4615
2023-05-01T04:42:11.233Z,148.6154
2023-05-01T04:43:12.230Z,144.0000
2023-05-01T04:44:13.258Z,146.6923
2023-05-01T04:45:14.273Z,145.9231
2023-05-01T04:46:15.331Z,147.0000
2023-05-01T04:47:16.367Z,148.8462
2023-05-01T04:48:17.439Z,146.9231
2023-05-01T04:49:18.389Z,147.6923
2023-05-01T04:50:19.455Z,145.0769
2023-05-01T04:51:20.457Z,141.1538
2023-05-01T04:52:21.582Z,143.2308
2023-05-01T04:53:22.602Z,152.7692
2023-05-01T04:54:23.588Z,146.3846
2023-05-01T04:55:24.599Z,147.2308
2023-05-01T04:56:25.662Z,151.4615
2023-05-01T04:57:26.687Z,154.4615
2023-05-01T04:58:27.710Z,155.7692
2023-05-01T04:59:28.752Z,152.2308
2023-05-01T05:00:29.768Z,149.8462
2023-05-01T05:01:30.903Z,147.6923
2023-05-01T05:02:32.128Z,152.2308
2023-05-01T05:03:33.032Z,152.4615
2023-05-01T05:04:34.030Z,151.7692
2023-05-01T05:05:35.008Z,151.3077
2023-05-01T05:06:36.075Z,155.7692
2023-05-01T05:07:37.066Z,156.9231
2023-05-01T05:08:38.130Z,161.0769
2023-05-01T05:09:39.155Z,162.7692
2023-05-01T05:10:40.154Z,155.7692
2023-05-01T05:11:41.217Z,150.5385
2023-05-01T05:12:42.242Z,155.4615
2023-05-01T05:13:43.349Z,156.9231
2023-05-01T05:14:44.350Z,158.7692
2023-05-01T05:15:45.374Z,158.1538
2023-05-01T05:16:46.401Z,156.8462
2023-05-01T05:17:47.463Z,158.5385
2023-05-01T05:18:48.478Z,156.9231
2023-05-01T05:19:49.532Z,164.0769
2023-05-01T05:20:50.523Z,163.6923
2023-05-01T05:21:51.536Z,167.0000
2023-05-01T05:22:52.550Z,170.6923
2023-05-01T05:23:53.655Z,170.3846
2023-05-01T05:24:54.667Z,165.3846
2023-05-01T05:25:55.713Z,160.9231
2023-05-01T05:26:56.730Z,157.3077
2023-05-01T05:27:57.750Z,160.9231
2023-05-01T05:28:58.750Z,163.3846
2023-05-01T05:29:59.858Z,163.6154
2023-05-01T05:31:00.875Z,167.3846
2023-05-01T05:32:01.992Z,169.4615
2023-05-01T05:33:03.025Z,170.1538
2023-05-01T05:34:03.953Z,172.9231
2023-05-01T05:35:04.951Z,173.5385
2023-05-01T05:36:06.053Z,173.7692
2023-05-01T05:37:07.075Z,172.8462
2023-05-01T05:38:08.092Z,164.0769
2023-05-01T05:39:09.116Z,161.5385
2023-05-01T05:40:10.177Z,161.0769
2023-05-01T05:41:11.210Z,164.0000
2023-05-01T05:42:12.248Z,165.6154
2023-05-01T05:43:13.237Z,169.3846
2023-05-01T05:44:14.280Z,171.0769
2023-05-01T05:45:15.282Z,171.8462
2023-05-01T05:46:16.360Z,165.5385
2023-05-01T05:47:17.395Z,167.1538
2023-05-01T05:48:18.405Z,168.6923
2023-05-01T05:49:19.432Z,171.5385
2023-05-01T05:50:20.476Z,171.0769
2023-05-01T05:51:21.523Z,168.6154
2023-05-01T05:52:22.577Z,167.3077
2023-05-01T05:53:25.706Z,160.1538
2023-05-01T05:54:24.637Z,163.1538
2023-05-01T05:55:25.605Z,161.5385
2023-05-01T05:56:26.699Z,166.3846
2023-05-01T05:57:27.697Z,163.7692
2023-05-01T05:58:28.743Z,165.3846
2023-05-01T05:59:29.757Z,167.3846
2023-05-01T06:00:30.892Z,171.9231
2023-05-01T06:01:31.867Z,173.2308
2023-05-01T06:02:33.035Z,177.1538
2023-05-01T06:03:34.100Z,175.3846
2023-05-01T06:04:34.938Z,170.8462
2023-05-01T06:05:35.976Z,174.6923
2023-05-01T06:06:37.124Z,175.3846
2023-05-01T06:07:38.054Z,168.5385
2023-05-01T06:08:39.136Z,168.3846
2023-05-01T06:09:40.178Z,169.6154
2023-05-01T06:10:41.259Z,173.5385
2023-05-01T06:11:42.302Z,172.8462
2023-05-01T06:12:50.005Z,173.0769
2023-05-01T06:13:44.391Z,173.9231
2023-05-01T06:14:45.370Z,173.0769
2023-05-01T06:15:46.466Z,175.9231
2023-05-01T06:16:47.439Z,179.3077
2023-05-01T06:17:48.612Z,183.0000
2023-05-01T06:18:49.538Z,181.4615
2023-05-01T06:19:50.521Z,183.1538
2023-05-01T06:20:51.533Z,186.3846
2023-05-01T06:21:52.598Z,189.3846
2023-05-01T06:22:53.664Z,185.6923
2023-05-01T06:23:54.725Z,184.9231
2023-05-01T06:24:55.697Z,186.3846
2023-05-01T06:25:56.735Z,189.3846
2023-05-01T06:26:58.681Z,192.3846
2023-05-01T06:27:58.854Z,183.3077
2023-05-01T06:28:59.920Z,180.6154
2023-05-01T06:30:00.941Z,184.7692
2023-05-01T06:31:01.815Z,189.4615
2023-05-01T06:32:02.899Z,188.3846
2023-05-01T06:33:03.913Z,182.3846
2023-05-01T06:34:04.951Z,181.3077
2023-05-01T06:35:05.921Z,182.8462
2023-05-01T06:36:06.973Z,180.9231
2023-05-01T06:37:08.024Z,183.6154
2023-05-01T06:38:09.092Z,184.8462
2023-05-01T06:39:10.117Z,189.6923
2023-05-01T06:40:11.135Z,184.2308
2023-05-01T06:41:12.160Z,180.7692
2023-05-01T06:42:13.174Z,184.0769
2023-05-01T06:43:14.248Z,189.9231
2023-05-01T06:44:15.291Z,189.0000
2023-05-01T06:45:16.312Z,185.4615
2023-05-01T06:46:17.388Z,192.6154
2023-05-01T06:47:18.320Z,192.3077
2023-05-01T06:48:19.370Z,190.6154
2023-05-01T06:49:20.411Z,190.3846
2023-05-01T06:50:21.491Z,189.8462
2023-05-01T06:51:22.491Z,190.2308
2023-05-01T06:52:23.537Z,186.3846
2023-05-01T06:53:24.558Z,185.0769
2023-05-01T06:54:25.704Z,185.8462
2023-05-01T06:55:26.671Z,187.1538
2023-05-01T06:56:27.669Z,191.1538
2023-05-01T06:57:28.692Z,194.3846
2023-05-01T06:58:29.753Z,194.8462
2023-05-01T06:59:30.792Z,188.1538
2023-05-01T07:00:31.837Z,187.0769
2023-05-01T07:01:35.322Z,191.9231
2023-05-01T07:02:33.943Z,191.4615
2023-05-01T07:03:35.013Z,185.0769
2023-05-01T07:04:35.976Z,185.2308
2023-05-01T07:05:37.008Z,190.6154
2023-05-01T07:06:38.154Z,196.0769
2023-05-01T07:07:47.280Z,197.6154
2023-05-01T07:08:40.082Z,195.9231
2023-05-01T07:09:41.166Z,194.0000
2023-05-01T07:10:42.496Z,198.0769
2023-05-01T07:11:43.234Z,201.0769
2023-05-01T07:12:44.198Z,198.8462
2023-05-01T07:13:45.260Z,190.9231
2023-05-01T07:14:46.338Z,191.3846
2023-05-01T07:15:47.352Z,189.9231
2023-05-01T07:16:48.490Z,191.4615
2023-05-01T07:17:49.449Z,192.1538
2023-05-01T07:18:50.466Z,193.9231
2023-05-01T07:19:51.495Z,186.2308
2023-05-01T07:20:52.540Z,187.3077
2023-05-01T07:21:53.553Z,187.3846
2023-05-01T07:22:54.587Z,189.1538
2023-05-01T07:23:55.784Z,187.3846
2023-05-01T07:24:56.720Z,189.6923
2023-05-01T07:25:57.713Z,179.6154
2023-05-01T07:26:58.722Z,177.0769
2023-05-01T07:27:59.757Z,179.3846
2023-05-01T07:29:00.796Z,179.4615
2023-05-01T07:30:01.870Z,184.1538
2023-05-01T07:31:02.937Z,188.4615
2023-05-01T07:32:04.088Z,196.2308
2023-05-01T07:33:04.963Z,197.1538
2023-05-01T07:34:05.934Z,196.5385
2023-05-01T07:35:07.009Z,187.6923
2023-05-01T07:36:08.139Z,181.2308
2023-05-01T07:37:09.290Z,186.6154
2023-05-01T07:38:10.076Z,188.1538
2023-05-01T07:39:11.142Z,188.0000
2023-05-01T07:40:12.221Z,193.2308
2023-05-01T07:41:13.213Z,192.0000
2023-05-01T07:42:14.272Z,192.3077
2023-05-01T07:43:15.262Z,190.6154
2023-05-01T07:44:16.304Z,195.3846
2023-05-01T07:45:17.316Z,193.0000
2023-05-01T07:46:18.403Z,196.8462
2023-05-01T07:47:19.468Z,200.5385
2023-05-01T07:48:20.437Z,202.0000
2023-05-01T07:49:21.578Z,192.9231
2023-05-01T07:50:22.483Z,191.3077
2023-05-01T07:51:23.570Z,188.7692
2023-05-01T07:52:24.588Z,188.6154
2023-05-01T07:53:25.619Z,186.6154
2023-05-01T07:54:26.634Z,189.0000
2023-05-01T07:55:27.699Z,194.3077
2023-05-01T07:56:28.738Z,200.2308
2023-05-01T07:57:29.771Z,203.8462
2023-05-01T07:58:30.758Z,206.2308
2023-05-01T07:59:31.821Z,201.4615
2023-05-01T08:00:32.815Z,198.0769
2023-05-01T08:01:33.932Z,198.3077
2023-05-01T08:02:34.978Z,201.8462
2023-05-01T08:03:36.003Z,203.7692
2023-05-01T08:04:37.023Z,202.3846
2023-05-01T08:05:38.148Z,199.1538
2023-05-01T08:06:39.189Z,195.7692
2023-05-01T08:07:40.127Z,197.3846
2023-05-01T08:08:41.149Z,196.4615
2023-05-01T08:09:42.333Z,199.7692
2023-05-01T08:10:43.173Z,199.4615
2023-05-01T08:11:44.209Z,204.2308
2023-05-01T08:12:45.297Z,204.3846
2023-05-01T08:13:46.367Z,204.8462
2023-05-01T08:14:47.309Z,204.5385
2023-05-01T08:15:48.493Z,205.3077
2023-05-01T08:16:49.520Z,207.0000
2023-05-01T08:17:50.678Z,209.4615
2023-05-01T08:18:51.631Z,207.3077
2023-05-01T08:19:52.654Z,203.0769
2023-05-01T08:20:53.639Z,199.2308
2023-05-01T08:21:54.657Z,199.2308
2023-05-01T08:22:55.734Z,202.4615
2023-05-01T08:23:56.773Z,201.0000
2023-05-01T08:24:57.831Z,199.4615
2023-05-01T08:25:58.841Z,203.2308
2023-05-01T08:26:59.876Z,202.5385
2023-05-01T08:28:00.935Z,200.6923
2023-05-01T08:29:02.025Z,200.0000
2023-05-01T08:30:03.006Z,197.0769
2023-05-01T08:31:04.067Z,197.0000
2023-05-01T08:32:04.951Z,198.1538
2023-05-01T08:33:06.183Z,205.0000
2023-05-01T08:34:07.241Z,204.9231
2023-05-01T08:35:08.157Z,206.4615
2023-05-01T08:36:09.199Z,207.3846
2023-05-01T08:37:10.316Z,200.7692
2023-05-01T08:38:11.385Z,198.7692
2023-05-01T08:39:12.436Z,196.6923
2023-05-01T08:40:13.401Z,195.3846
2023-05-01T08:41:14.425Z,197.3846
2023-05-01T08:42:15.460Z,200.2308
2023-05-01T08:43:16.512Z,194.8462
2023-05-01T08:44:17.582Z,195.0769
2023-05-01T08:45:18.499Z,197.3077
2023-05-01T08:46:19.592Z,196.6923
2023-05-01T08:47:20.672Z,197.6154
2023-05-01T08:48:21.674Z,201.8462
2023-05-01T08:49:22.673Z,203.0000
2023-05-01T08:50:23.721Z,205.4615
2023-05-01T08:51:24.714Z,209.9231
2023-05-01T08:52:25.751Z,201.6154
2023-05-01T08:53:26.826Z,201.2308
2023-05-01T08:54:27.870Z,203.1538
2023-05-01T08:55:28.909Z,200.6923
2023-05-01T08:56:29.986Z,198.5385
2023-05-01T08:57:30.915Z,189.3077
2023-05-01T08:58:32.125Z,189.0769
2023-05-01T08:59:33.038Z,192.0000
2023-05-01T09:00:34.041Z,196.6154
2023-05-01T09:01:35.170Z,196.0000
2023-05-01T09:02:36.219Z,195.0769
2023-05-01T09:03:37.260Z,192.0769
2023-05-01T09:04:38.271Z,190.1538
2023-05-01T09:05:39.312Z,194.2308
2023-05-01T09:06:40.388Z,196.0769
2023-05-01T09:07:41.346Z,200.0769
2023-05-01T09:08:42.446Z,196.9231
2023-05-01T09:09:43.513Z,188.5385
2023-05-01T09:10:44.484Z,193.0769
2023-05-01T09:11:45.572Z,189.8462
2023-05-01T09:12:46.550Z,188.2308
2023-05-01T09:13:47.610Z,195.6923
2023-05-01T09:14:48.747Z,202.3846
2023-05-01T09:15:49.676Z,203.7692
2023-05-01T09:16:50.813Z,190.6923
2023-05-01T09:17:51.758Z,192.6154
2023-05-01T09:18:52.768Z,192.9231
2023-05-01T09:19:53.834Z,193.4615
2023-05-01T09:20:54.809Z,194.5385
2023-05-01T09:21:55.867Z,195.6154
2023-05-01T09:22:56.878Z,193.0769
2023-05-01T09:23:57.930Z,195.3077
2023-05-01T09:24:59.028Z,198.8462
2023-05-01T09:26:00.036Z,194.8462
2023-05-01T09:27:01.107Z,195.0769
2023-05-01T09:28:02.053Z,199.4615
2023-05-01T09:29:03.203Z,197.0769
2023-05-01T09:30:04.187Z,198.7692
2023-05-01T09:31:05.150Z,203.0000
2023-05-01T09:32:06.206Z,202.0000
2023-05-01T09:33:07.285Z,199.0769
2023-05-01T09:34:08.299Z,200.2308
2023-05-01T09:35:09.356Z,202.6154
2023-05-01T09:36:10.290Z,204.6154
2023-05-01T09:37:11.385Z,199.6154
2023-05-01T09:38:12.372Z,185.6154
2023-05-01T09:39:13.497Z,184.3846
2023-05-01T09:40:14.568Z,190.4615
2023-05-01T09:41:15.491Z,192.2308
2023-05-01T09:42:16.568Z,194.3846
2023-05-01T09:43:17.556Z,198.7692
2023-05-01T09:44:18.629Z,206.3846
2023-05-01T09:45:19.727Z,205.5385
2023-05-01T09:46:20.708Z,204.9231
2023-05-01T09:47:21.772Z,203.7692
2023-05-01T09:48:22.713Z,207.7692
2023-05-01T09:49:23.784Z,208.6923
2023-05-01T09:50:24.856Z,203.9231
2023-05-01T09:51:25.812Z,201.9231
2023-05-01T09:52:26.815Z,201.0000
2023-05-01T09:53:27.987Z,206.6154
2023-05-01T09:54:28.934Z,206.8462
2023-05-01T09:55:30.032Z,210.2308
2023-05-01T09:56:31.067Z,209.3846
2023-05-01T09:57:32.032Z,208.2308
2023-05-01T09:58:33.056Z,210.8462
2023-05-01T09:59:34.150Z,215.7692
2023-05-01T10:00:35.174Z,216.6923
2023-05-01T10:01:36.248Z,203.6154
2023-05-01T10:02:37.244Z,197.8462
2023-05-01T10:03:38.626Z,194.6923
2023-05-01T10:04:39.295Z,203.4615
2023-05-01T10:05:40.374Z,210.6923
2023-05-01T10:06:41.474Z,217.7692
2023-05-01T10:07:42.505Z,215.3846
2023-05-01T10:08:43.417Z,211.6154
2023-05-01T10:09:44.543Z,203.9231
2023-05-01T10:10:45.564Z,202.4615
2023-05-01T10:11:46.534Z,209.8462
2023-05-01T10:12:47.627Z,201.5385
2023-05-01T10:13:48.602Z,191.3846
2023-05-01T10:14:49.721Z,192.4615
2023-05-01T10:15:50.836Z,195.5385
2023-05-01T10:16:51.794Z,196.6923
2023-05-01T10:17:52.818Z,195.9231
2023-05-01T10:18:53.775Z,194.7692
2023-05-01T10:19:55.227Z,198.2308
2023-05-01T10:20:55.909Z,202.1538
2023-05-01T10:21:56.943Z,209.7692
2023-05-01T10:22:57.984Z,211.3077
2023-05-01T10:23:59.011Z,207.9231
2023-05-01T10:25:00.047Z,211.9231
2023-05-01T10:26:02.508Z,215.0769
2023-05-01T10:27:02.108Z,216.3077
2023-05-01T10:28:03.071Z,204.8462
2023-05-01T10:29:04.122Z,201.5385
2023-05-01T10:30:05.300Z,204.2308
2023-05-01T10:31:06.261Z,203.6923
2023-05-01T10:32:07.219Z,199.6154
2023-05-01T10:33:08.368Z,201.0769
2023-05-01T10:34:09.287Z,192.1538
2023-05-01T10:35:10.390Z,193.9231
2023-05-01T10:36:11.432Z,206.0000
2023-05-01T10:37:12.455Z,202.1538
2023-05-01T10:38:13.426Z,200.5385
2023-05-01T10:39:14.508Z,203.9231
2023-05-01T10:40:15.590Z,211.0769
2023-05-01T10:41:16.588Z,206.4615
2023-05-01T10:42:17.634Z,180.6923
2023-05-01T10:43:18.653Z,173.8462
2023-05-01T10:44:19.717Z,167.9231
2023-05-01T10:45:20.752Z,169.2308
2023-05-01T10:46:21.914Z,175.2308
2023-05-01T10:47:22.808Z,181.6923
2023-05-01T10:48:23.805Z,192.3846
2023-05-01T10:49:24.878Z,189.7692
2023-05-01T10:50:25.952Z,198.8462
2023-05-01T10:51:28.271Z,189.6154
2023-05-01T10:52:27.969Z,176.0769
2023-05-01T10:53:28.986Z,172.6923
2023-05-01T10:54:29.991Z,170.3846
2023-05-01T10:55:31.185Z,176.6923
2023-05-01T10:56:32.164Z,182.1538
2023-05-01T10:57:33.149Z,187.0000
2023-05-01T10:58:34.162Z,191.0000
2023-05-01T10:59:35.275Z,197.6154
2023-05-01T11:00:36.277Z,196.5385
2023-05-01T11:01:37.389Z,197.2308
2023-05-01T11:02:38.336Z,201.6154
2023-05-01T11:03:39.360Z,201.7692
2023-05-01T11:04:40.336Z,206.9231
2023-05-01T11:05:41.582Z,200.7692
2023-05-01T11:06:42.642Z,186.0769
2023-05-01T11:07:43.478Z,182.2308
2023-05-01T11:08:45.544Z,179.3846
2023-05-01T11:09:45.506Z,184.4615
2023-05-01T11:10:46.616Z,191.0769
2023-05-01T11:11:47.674Z,201.1538
2023-05-01T11:12:48.679Z,190.3077
2023-05-01T11:13:49.675Z,181.6923
2023-05-01T11:14:50.697Z,185.9231
2023-05-01T11:15:51.844Z,182.0000
2023-05-01T11:16:52.865Z,177.3077
2023-05-01T11:17:53.911Z,181.1538
2023-05-01T11:18:54.855Z,188.0769
2023-05-01T11:19:55.886Z,201.6154
2023-05-01T11:20:56.944Z,206.8462
2023-05-01T11:21:57.973Z,203.9231
2023-05-01T11:22:59.026Z,196.3846
2023-05-01T11:24:00.023Z,188.3077
2023-05-01T11:25:01.056Z,185.3077
2023-05-01T11:26:02.092Z,186.6923
2023-05-01T11:27:03.187Z,170.8462
2023-05-01T11:28:04.178Z,168.9231
2023-05-01T11:29:05.270Z,172.3077
2023-05-01T11:30:06.226Z,177.4615
2023-05-01T11:31:07.364Z,179.3846
2023-05-01T11:32:08.483Z,183.5385
2023-05-01T11:33:10.964Z,182.0000
2023-05-01T11:34:10.361Z,188.1538
2023-05-01T11:35:11.411Z,197.0000
2023-05-01T11:36:12.457Z,199.0769
2023-05-01T11:37:13.504Z,205.2308
2023-05-01T11:38:14.465Z,204.7692
2023-05-01T11:39:15.557Z,202.4615
2023-05-01T11:40:16.571Z,200.6154
2023-05-01T11:41:19.254Z,205.5385
2023-05-01T11:42:18.721Z,208.3846
2023-05-01T11:43:19.755Z,194.0769
2023-05-01T11:44:20.694Z,192.3846
2023-05-01T11:45:21.772Z,201.5385
2023-05-01T11:46:22.846Z,210.1538
2023-05-01T11:47:23.898Z,208.3077
2023-05-01T11:48:24.843Z,202.3846
2023-05-01T11:49:25.876Z,190.1538
2023-05-01T11:50:26.895Z,194.0000
2023-05-01T11:51:28.048Z,199.6154
2023-05-01T11:52:29.026Z,197.5385
2023-05-01T11:53:30.049Z,203.0000
2023-05-01T11:54:31.039Z,199.3077
2023-05-01T11:55:32.080Z,192.9231
2023-05-01T11:56:33.162Z,194.7692
2023-05-01T11:57:34.188Z,197.7692